Surf City, North Carolina
Current Conditions -  °F | °C
As of 4:56 AM on Thursday 23 Oct 2014 (Local Time) from KNCA Reporting Station
Clear Clear  
Wind Chill: 45°   Ceiling: Unl
Heat Index: 48°   Visibility: 10mi
Dew Point: 43°   Wind: 7mph
Humidity: 83%   Direction: 300°WNW
Pressure: 29.98"   Gusts: NA
Location:  34.4895°N, 77.514°W
Report Text: KNCA 230856Z AUTO 30006KT 10SM CLR 09/06 A2998 RMK AO2 SLP153 T00890061 58005
Loading
Personal Weather Stations






























Interactive Weather Map
Tropical Storm Tracking
New forecast layout! Learn more

10-Day Weather Forecast

Advertisements
Track Severe Weather on mobile